Azalea Ace — A8ZJ6 — position and weather

sailwx.info

Track history (hours):
 
Tides and Currents Weather Stations Pressure Air Temp Water Temp Dewpoint Dewpoint Depression Visibility Wind Speed Wind Dir Waves Ship Positions

Azalea Ace

Last reported at 2016-Jun-24 00:25 UTC. Time now 2016-Jul-02 00:28 UTC.
Position N 35°12' W 129°05'.
Warning: this ship's position is 8 days out of date.

Length 180 m; draft 7.4 m.

Type: Cargo ship. MMSI: 636015228.

Date/timePositionNaut miles runAvg speedWind from/ knotsBaromVisibWave heightAir tempDewpointWater temp
2016-Jun-24 00:25N 35°12' W 129°05'1415.9
2016-Jun-23 23:33N 35°04' W 128°51'1616.0
2016-Jun-23 22:34N 34°54' W 128°36'1615.9
2016-Jun-23 21:32N 34°45' W 128°20'1616.0
2016-Jun-23 20:33N 34°36' W 128°04'1616.2
2016-Jun-23 19:33N 34°26' W 127°48'1616.2
2016-Jun-23 18:33N 34°16' W 127°33'1615.8
2016-Jun-23 17:33N 34°07' W 127°17'1716.8
2016-Jun-23 16:33N 33°57' W 127°01'1615.9
2016-Jun-23 15:33N 33°48' W 126°45'1515.2
2016-Jun-23 14:33N 33°38' W 126°31'1514.9
2016-Jun-23 13:33N 33°30' W 126°16'1514.9
2016-Jun-23 12:33N 33°21' W 126°02'1514.9
2016-Jun-23 11:34N 33°12' W 125°47'1514.6
2016-Jun-23 10:34N 33°03' W 125°33'1514.6
2016-Jun-23 09:33N 32°55' W 125°19'1414.4
2016-Jun-23 08:33N 32°46' W 125°06'1414.5
2016-Jun-23 07:33N 32°37' W 124°52'2914.5
2016-Jun-23 05:33N 32°21' W 124°24'1414.2
2016-Jun-23 04:34N 32°12' W 124°11'1414.3
2016-Jun-23 03:34N 32°04' W 123°57'1414.3
2016-Jun-23 02:34N 31°55' W 123°43'1414.2
2016-Jun-23 01:33N 31°47' W 123°30'1414.1
2016-Jun-23 00:33N 31°38' W 123°17'1514.5
2016-Jun-22 23:34N 31°29' W 123°04'1312.7
2016-Jun-22 22:34N 31°26' W 122°49'1616.1
2016-Jun-22 21:34N 31°36' W 122°35'1616.3
2016-Jun-22 20:34N 31°46' W 122°20'1615.9
2016-Jun-22 19:34N 31°56' W 122°05'1615.8
2016-Jun-22 18:34N 32°06' W 121°51'1615.9
2016-Jun-22 17:34N 32°17' W 121°37'1615.7
2016-Jun-22 16:34N 32°27' W 121°23'1313.3
2016-Jun-22 15:33N 32°28' W 121°07'1414.1
2016-Jun-22 14:33N 32°25' W 120°51'1514.7
2016-Jun-22 13:34N 32°23' W 120°34'1515.5
2016-Jun-22 12:34N 32°20' W 120°15'1515.4
2016-Jun-22 11:34N 32°19' W 119°57'1616.2
2016-Jun-22 10:33N 32°31' W 119°44'1616.3
2016-Jun-22 09:33N 32°42' W 119°30'1616.4
2016-Jun-22 08:34N 32°54' W 119°17'1616.0
2016-Jun-22 07:34N 33°06' W 119°03'1515.3
2016-Jun-22 06:34N 33°08' W 118°45'1211.6
2016-Jun-22 05:34N 33°10' W 118°32'1110.1
2016-Jun-22 04:30N 33°12' W 118°19'910.1
2016-Jun-22 03:33N 33°16' W 118°09'10 9.9
2016-Jun-22 02:33N 33°26' W 118°09'1211.6
2016-Jun-22 01:34N 33°37' W 118°14'7 7.5
2016-Jun-22 00:33N 33°44' W 118°17'2 1.9
2016-Jun-21 23:31N 33°46' W 118°15'0 0.0
2016-Jun-21 22:31N 33°46' W 118°15'0 0.0
2016-Jun-21 21:31N 33°46' W 118°15'0 0.0
2016-Jun-21 20:31N 33°46' W 118°15'0 0.0
2016-Jun-21 19:31N 33°46' W 118°15'0 0.0
2016-Jun-21 18:31N 33°46' W 118°15'0 0.0
2016-Jun-21 17:31N 33°46' W 118°15'0 0.0
2016-Jun-21 16:31N 33°46' W 118°15'0 0.0
2016-Jun-21 15:31N 33°46' W 118°15'0 0.0
2016-Jun-21 14:31N 33°46' W 118°15'0 0.0
2016-Jun-21 13:31N 33°46' W 118°15'0 0.0
2016-Jun-21 12:31N 33°46' W 118°15'0 0.0
2016-Jun-21 11:31N 33°46' W 118°15'0 0.0
2016-Jun-21 10:31N 33°46' W 118°15'0 0.0
2016-Jun-21 09:31N 33°46' W 118°15'0 0.0
2016-Jun-21 08:31N 33°46' W 118°15'0 0.0
2016-Jun-21 07:31N 33°46' W 118°15'0 0.0
2016-Jun-21 04:31N 33°46' W 118°15'0 0.0
2016-Jun-21 03:31N 33°46' W 118°15'0 0.0
2016-Jun-21 02:31N 33°46' W 118°15'0 0.0
2016-Jun-21 01:31N 33°46' W 118°15'0 0.0
2016-Jun-21 00:31N 33°46' W 118°15'0 0.0
2016-Jun-20 23:31N 33°46' W 118°15'0 0.0
2016-Jun-20 22:31N 33°46' W 118°15'1 0.8
2016-Jun-20 21:33N 33°45' W 118°16'3 2.8
2016-Jun-20 20:33N 33°43' W 118°14'2 1.9
2016-Jun-20 19:32N 33°45' W 118°12'0 0.0
2016-Jun-20 18:32N 33°45' W 118°12'0 0.0
2016-Jun-20 17:32N 33°45' W 118°12'0 0.0
2016-Jun-20 16:32N 33°45' W 118°12'0 0.0
2016-Jun-20 15:32N 33°45' W 118°12'0 0.0
2016-Jun-20 14:32N 33°45' W 118°12'1 0.9
2016-Jun-20 13:33N 33°44' W 118°12'5 5.2
2016-Jun-20 12:33N 33°39' W 118°09'6 5.7
2016-Jun-20 11:33N 33°34' W 118°09'7 7.2
2016-Jun-20 10:33N 33°27' W 118°06'9 8.6
2016-Jun-20 09:33N 33°18' W 118°05'9 9.3
2016-Jun-20 08:33N 33°13' W 118°14'1111.2
2016-Jun-20 07:33N 33°11' W 118°27'1110.9
2016-Jun-20 06:33N 33°09' W 118°40'1110.9
2016-Jun-20 05:33N 33°07' W 118°53'1110.7
2016-Jun-20 04:33N 33°05' W 119°06'1110.9
2016-Jun-20 03:33N 33°02' W 119°18'1110.9
2016-Jun-20 02:32N 32°58' W 119°30'1311.8
2016-Jun-20 01:28N 32°54' W 119°45'1111.6
2016-Jun-20 00:33N 32°53' W 119°57'1111.2
2016-Jun-19 23:33N 32°51' W 120°10'1111.1
2016-Jun-19 22:33N 32°50' W 120°23'1111.1
2016-Jun-19 21:33N 32°49' W 120°37'1111.5
2016-Jun-19 20:33N 32°47' W 120°50'1211.8
2016-Jun-19 19:33N 32°46' W 121°04'1712.5
2016-Jun-19 18:13N 32°44' W 121°24'913.7
2016-Jun-19 17:33N 32°43' W 121°34'1413.5
2016-Jun-19 16:33N 32°41' W 121°50'1212.3
2016-Jun-19 15:33N 32°40' W 122°05'10 9.9
2016-Jun-19 14:31N 32°47' W 122°14'3411.6
2016-Jun-19 11:33N 33°17' W 122°33'1311.6
2016-Jun-19 10:27N 33°29' W 122°40'1011.4
2016-Jun-19 09:33N 33°38' W 122°46'1211.5
2016-Jun-19 08:33N 33°48' W 122°52'1211.6
2016-Jun-19 07:33N 33°58' W 122°59'3612.1
2016-Jun-19 04:33N 34°34' W 123°00'1212.1
2016-Jun-19 03:33N 34°47' W 122°60'1211.9
2016-Jun-19 02:33N 34°58' W 122°60'1211.9
2016-Jun-19 01:33N 35°10' W 122°60'1212.3
2016-Jun-19 00:33N 35°23' W 122°60'1212.4
2016-Jun-18 23:33N 35°35' W 123°00'1312.7
2016-Jun-18 22:33N 35°48' W 122°60'1212.4
2016-Jun-18 21:33N 36°00' W 123°00'1212.1
2016-Jun-18 20:33N 36°11' W 123°05'1211.6
2016-Jun-18 19:33N 36°23' W 123°10'1211.8
2016-Jun-18 18:33N 36°34' W 123°15'1211.9
2016-Jun-18 17:33N 36°45' W 123°20'1211.5
2016-Jun-18 16:33N 36°56' W 123°25'1111.1
2016-Jun-18 15:33N 37°06' W 123°29'1211.6
2016-Jun-18 14:30N 37°18' W 123°34'1112.0
2016-Jun-18 13:33N 37°28' W 123°39'1211.7
2016-Jun-18 12:33N 37°39' W 123°44'1111.5
2016-Jun-18 11:33N 37°50' W 123°49'1211.6
2016-Jun-18 10:33N 38°01' W 123°54'1211.5
2016-Jun-18 09:33N 38°12' W 123°59'1211.8
2016-Jun-18 08:33N 38°23' W 124°04'1212.5
2016-Jun-18 07:33N 38°35' W 124°09'1513.5
2016-Jun-18 06:27N 38°49' W 124°15'38812.9
2016-Jun-17 00:20N 45°14' W 125°19'1013.0
2016-Jun-16 23:33N 45°24' W 125°19'1313.2
2016-Jun-16 22:33N 45°37' W 125°20'1313.0
2016-Jun-16 21:33N 45°50' W 125°21'1313.0
2016-Jun-16 20:33N 46°03' W 125°22'1312.9
2016-Jun-16 19:33N 46°16' W 125°23'1313.1
2016-Jun-16 18:33N 46°29' W 125°24'1313.3
2016-Jun-16 17:33N 46°42' W 125°25'1413.5
2016-Jun-16 16:33N 46°56' W 125°25'7615.2
2016-Jun-16 11:32N 48°12' W 125°18'1515.4
2016-Jun-16 10:33N 48°25' W 125°08'1414.5
2016-Jun-16 09:34N 48°31' W 124°48'1616.0
2016-Jun-16 08:33N 48°25' W 124°25'1515.3
2016-Jun-16 07:33N 48°19' W 124°04'1515.1
2016-Jun-16 06:33N 48°16' W 123°41'1313.3
2016-Jun-16 05:33N 48°11' W 123°23'1413.5
2016-Jun-16 04:33N 48°13' W 123°03'1717.4
2016-Jun-16 03:34N 48°06' W 122°39'1818.2
2016-Jun-16 02:34N 47°50' W 122°27'1817.9
2016-Jun-16 01:34N 47°32' W 122°28'1414.4
2016-Jun-16 00:34N 47°18' W 122°27'4 3.5
2016-Jun-15 23:32N 47°16' W 122°23'0 0.0
2016-Jun-15 22:32N 47°16' W 122°23'0 0.0
2016-Jun-15 21:32N 47°16' W 122°23'0 0.0
2016-Jun-15 20:29N 47°16' W 122°23'0 0.0
2016-Jun-15 19:29N 47°16' W 122°23'0 0.0
2016-Jun-15 18:26N 47°16' W 122°23'0 0.0
2016-Jun-15 17:26N 47°16' W 122°23'0 0.0
2016-Jun-15 16:32N 47°16' W 122°23'0 0.0
2016-Jun-15 15:29N 47°16' W 122°23'0 0.0
2016-Jun-15 14:32N 47°16' W 122°23'2 1.6
2016-Jun-15 13:33N 47°17' W 122°25'8 7.9
2016-Jun-15 12:34N 47°24' W 122°23'1616.3
2016-Jun-15 11:34N 47°40' W 122°28'1616.2
2016-Jun-15 10:33N 47°56' W 122°32'1616.2
2016-Jun-15 09:33N 48°10' W 122°45'1717.1
2016-Jun-15 08:33N 48°12' W 123°11'1110.8
2016-Jun-15 07:33N 48°11' W 123°27'8 8.4
2016-Jun-15 06:33N 48°20' W 123°27'1111.3
2016-Jun-15 05:33N 48°26' W 123°12'1717.1
2016-Jun-15 04:33N 48°43' W 123°14'1211.5
2016-Jun-15 03:33N 48°54' W 123°08'1717.0
2016-Jun-15 02:33N 49°07' W 123°24'1414.5
2016-Jun-15 01:33N 49°19' W 123°11'6 5.9
2016-Jun-15 00:33N 49°18' W 123°02'0 0.0
2016-Jun-14 23:33N 49°18' W 123°02'0 0.0
2016-Jun-14 22:33N 49°18' W 123°02'0 0.0
2016-Jun-14 21:33N 49°18' W 123°02'0 0.0
2016-Jun-14 20:33N 49°18' W 123°02'0 0.0
2016-Jun-14 19:33N 49°18' W 123°02'0 0.0
2016-Jun-14 18:33N 49°18' W 123°02'0 0.0
2016-Jun-14 17:33N 49°18' W 123°02'0 0.0
2016-Jun-14 16:33N 49°18' W 123°02'0 0.0
2016-Jun-14 15:33N 49°18' W 123°02'0 0.0
2016-Jun-14 14:33N 49°18' W 123°02'0 0.0
2016-Jun-14 13:33N 49°18' W 123°02'0 0.0
2016-Jun-14 12:33N 49°18' W 123°02'0 0.0
2016-Jun-14 11:33N 49°18' W 123°02'0 0.0
2016-Jun-14 10:33N 49°18' W 123°02'0 0.0
2016-Jun-14 09:34N 49°18' W 123°02'2 2.0
2016-Jun-14 08:34N 49°18' W 123°05'7 7.2
2016-Jun-14 07:33N 49°18' W 123°16'13 6.5
2016-Jun-14 05:33N 49°08' W 123°04'7 6.3
2016-Jun-14 04:31N 49°11' W 122°55'0 0.0
2016-Jun-14 03:31N 49°11' W 122°55'0 0.0
2016-Jun-14 02:31N 49°11' W 122°55'0 0.0
2016-Jun-14 01:31N 49°11' W 122°55'0 0.0
2016-Jun-14 00:31N 49°11' W 122°55'  
Track history (hours):
 
Tides and Currents Weather Stations Pressure Air Temp Water Temp Dewpoint Dewpoint Depression Visibility Wind Speed Wind Dir Waves Ship Positions

Azalea Ace

Last reported at 2016-Jun-24 00:25 UTC. Time now 2016-Jul-02 00:28 UTC.
Position N 35°12' W 129°05'.
Warning: this ship's position is 8 days out of date.

Length 180 m; draft 7.4 m.

Type: Cargo ship. MMSI: 636015228.

Date/timePositionNaut miles runAvg speedWind from/ knotsBaromVisibWave heightAir tempDewpointWater temp
2016-Jun-24 00:25N 35°12' W 129°05'1415.9
2016-Jun-23 23:33N 35°04' W 128°51'1616.0
2016-Jun-23 22:34N 34°54' W 128°36'1615.9
2016-Jun-23 21:32N 34°45' W 128°20'1616.0
2016-Jun-23 20:33N 34°36' W 128°04'1616.2
2016-Jun-23 19:33N 34°26' W 127°48'1616.2
2016-Jun-23 18:33N 34°16' W 127°33'1615.8
2016-Jun-23 17:33N 34°07' W 127°17'1716.8
2016-Jun-23 16:33N 33°57' W 127°01'1615.9
2016-Jun-23 15:33N 33°48' W 126°45'1515.2
2016-Jun-23 14:33N 33°38' W 126°31'1514.9
2016-Jun-23 13:33N 33°30' W 126°16'1514.9
2016-Jun-23 12:33N 33°21' W 126°02'1514.9
2016-Jun-23 11:34N 33°12' W 125°47'1514.6
2016-Jun-23 10:34N 33°03' W 125°33'1514.6
2016-Jun-23 09:33N 32°55' W 125°19'1414.4
2016-Jun-23 08:33N 32°46' W 125°06'1414.5
2016-Jun-23 07:33N 32°37' W 124°52'2914.5
2016-Jun-23 05:33N 32°21' W 124°24'1414.2
2016-Jun-23 04:34N 32°12' W 124°11'1414.3
2016-Jun-23 03:34N 32°04' W 123°57'1414.3
2016-Jun-23 02:34N 31°55' W 123°43'1414.2
2016-Jun-23 01:33N 31°47' W 123°30'1414.1
2016-Jun-23 00:33N 31°38' W 123°17'1514.5
2016-Jun-22 23:34N 31°29' W 123°04'1312.7
2016-Jun-22 22:34N 31°26' W 122°49'1616.1
2016-Jun-22 21:34N 31°36' W 122°35'1616.3
2016-Jun-22 20:34N 31°46' W 122°20'1615.9
2016-Jun-22 19:34N 31°56' W 122°05'1615.8
2016-Jun-22 18:34N 32°06' W 121°51'1615.9
2016-Jun-22 17:34N 32°17' W 121°37'1615.7
2016-Jun-22 16:34N 32°27' W 121°23'1313.3
2016-Jun-22 15:33N 32°28' W 121°07'1414.1
2016-Jun-22 14:33N 32°25' W 120°51'1514.7
2016-Jun-22 13:34N 32°23' W 120°34'1515.5
2016-Jun-22 12:34N 32°20' W 120°15'1515.4
2016-Jun-22 11:34N 32°19' W 119°57'1616.2
2016-Jun-22 10:33N 32°31' W 119°44'1616.3
2016-Jun-22 09:33N 32°42' W 119°30'1616.4
2016-Jun-22 08:34N 32°54' W 119°17'1616.0
2016-Jun-22 07:34N 33°06' W 119°03'1515.3
2016-Jun-22 06:34N 33°08' W 118°45'1211.6
2016-Jun-22 05:34N 33°10' W 118°32'1110.1
2016-Jun-22 04:30N 33°12' W 118°19'910.1
2016-Jun-22 03:33N 33°16' W 118°09'10 9.9
2016-Jun-22 02:33N 33°26' W 118°09'1211.6
2016-Jun-22 01:34N 33°37' W 118°14'7 7.5
2016-Jun-22 00:33N 33°44' W 118°17'2 1.9
2016-Jun-21 23:31N 33°46' W 118°15'0 0.0
2016-Jun-21 22:31N 33°46' W 118°15'0 0.0
2016-Jun-21 21:31N 33°46' W 118°15'0 0.0
2016-Jun-21 20:31N 33°46' W 118°15'0 0.0
2016-Jun-21 19:31N 33°46' W 118°15'0 0.0
2016-Jun-21 18:31N 33°46' W 118°15'0 0.0
2016-Jun-21 17:31N 33°46' W 118°15'0 0.0
2016-Jun-21 16:31N 33°46' W 118°15'0 0.0
2016-Jun-21 15:31N 33°46' W 118°15'0 0.0
2016-Jun-21 14:31N 33°46' W 118°15'0 0.0
2016-Jun-21 13:31N 33°46' W 118°15'0 0.0
2016-Jun-21 12:31N 33°46' W 118°15'0 0.0
2016-Jun-21 11:31N 33°46' W 118°15'0 0.0
2016-Jun-21 10:31N 33°46' W 118°15'0 0.0
2016-Jun-21 09:31N 33°46' W 118°15'0 0.0
2016-Jun-21 08:31N 33°46' W 118°15'0 0.0
2016-Jun-21 07:31N 33°46' W 118°15'0 0.0
2016-Jun-21 04:31N 33°46' W 118°15'0 0.0
2016-Jun-21 03:31N 33°46' W 118°15'0 0.0
2016-Jun-21 02:31N 33°46' W 118°15'0 0.0
2016-Jun-21 01:31N 33°46' W 118°15'0 0.0
2016-Jun-21 00:31N 33°46' W 118°15'0 0.0
2016-Jun-20 23:31N 33°46' W 118°15'0 0.0
2016-Jun-20 22:31N 33°46' W 118°15'1 0.8
2016-Jun-20 21:33N 33°45' W 118°16'3 2.8
2016-Jun-20 20:33N 33°43' W 118°14'2 1.9
2016-Jun-20 19:32N 33°45' W 118°12'0 0.0
2016-Jun-20 18:32N 33°45' W 118°12'0 0.0
2016-Jun-20 17:32N 33°45' W 118°12'0 0.0
2016-Jun-20 16:32N 33°45' W 118°12'0 0.0
2016-Jun-20 15:32N 33°45' W 118°12'0 0.0
2016-Jun-20 14:32N 33°45' W 118°12'1 0.9
2016-Jun-20 13:33N 33°44' W 118°12'5 5.2
2016-Jun-20 12:33N 33°39' W 118°09'6 5.7
2016-Jun-20 11:33N 33°34' W 118°09'7 7.2
2016-Jun-20 10:33N 33°27' W 118°06'9 8.6
2016-Jun-20 09:33N 33°18' W 118°05'9 9.3
2016-Jun-20 08:33N 33°13' W 118°14'1111.2
2016-Jun-20 07:33N 33°11' W 118°27'1110.9
2016-Jun-20 06:33N 33°09' W 118°40'1110.9
2016-Jun-20 05:33N 33°07' W 118°53'1110.7
2016-Jun-20 04:33N 33°05' W 119°06'1110.9
2016-Jun-20 03:33N 33°02' W 119°18'1110.9
2016-Jun-20 02:32N 32°58' W 119°30'1311.8
2016-Jun-20 01:28N 32°54' W 119°45'1111.6
2016-Jun-20 00:33N 32°53' W 119°57'1111.2
2016-Jun-19 23:33N 32°51' W 120°10'1111.1
2016-Jun-19 22:33N 32°50' W 120°23'1111.1
2016-Jun-19 21:33N 32°49' W 120°37'1111.5
2016-Jun-19 20:33N 32°47' W 120°50'1211.8
2016-Jun-19 19:33N 32°46' W 121°04'1712.5
2016-Jun-19 18:13N 32°44' W 121°24'913.7
2016-Jun-19 17:33N 32°43' W 121°34'1413.5
2016-Jun-19 16:33N 32°41' W 121°50'1212.3
2016-Jun-19 15:33N 32°40' W 122°05'10 9.9
2016-Jun-19 14:31N 32°47' W 122°14'3411.6
2016-Jun-19 11:33N 33°17' W 122°33'1311.6
2016-Jun-19 10:27N 33°29' W 122°40'1011.4
2016-Jun-19 09:33N 33°38' W 122°46'1211.5
2016-Jun-19 08:33N 33°48' W 122°52'1211.6
2016-Jun-19 07:33N 33°58' W 122°59'3612.1
2016-Jun-19 04:33N 34°34' W 123°00'1212.1
2016-Jun-19 03:33N 34°47' W 122°60'1211.9
2016-Jun-19 02:33N 34°58' W 122°60'1211.9
2016-Jun-19 01:33N 35°10' W 122°60'1212.3
2016-Jun-19 00:33N 35°23' W 122°60'1212.4
2016-Jun-18 23:33N 35°35' W 123°00'1312.7
2016-Jun-18 22:33N 35°48' W 122°60'1212.4
2016-Jun-18 21:33N 36°00' W 123°00'1212.1
2016-Jun-18 20:33N 36°11' W 123°05'1211.6
2016-Jun-18 19:33N 36°23' W 123°10'1211.8
2016-Jun-18 18:33N 36°34' W 123°15'1211.9
2016-Jun-18 17:33N 36°45' W 123°20'1211.5
2016-Jun-18 16:33N 36°56' W 123°25'1111.1
2016-Jun-18 15:33N 37°06' W 123°29'1211.6
2016-Jun-18 14:30N 37°18' W 123°34'1112.0
2016-Jun-18 13:33N 37°28' W 123°39'1211.7
2016-Jun-18 12:33N 37°39' W 123°44'1111.5
2016-Jun-18 11:33N 37°50' W 123°49'1211.6
2016-Jun-18 10:33N 38°01' W 123°54'1211.5
2016-Jun-18 09:33N 38°12' W 123°59'1211.8
2016-Jun-18 08:33N 38°23' W 124°04'1212.5
2016-Jun-18 07:33N 38°35' W 124°09'1513.5
2016-Jun-18 06:27N 38°49' W 124°15'38812.9
2016-Jun-17 00:20N 45°14' W 125°19'1013.0
2016-Jun-16 23:33N 45°24' W 125°19'1313.2
2016-Jun-16 22:33N 45°37' W 125°20'1313.0
2016-Jun-16 21:33N 45°50' W 125°21'1313.0
2016-Jun-16 20:33N 46°03' W 125°22'1312.9
2016-Jun-16 19:33N 46°16' W 125°23'1313.1
2016-Jun-16 18:33N 46°29' W 125°24'1313.3
2016-Jun-16 17:33N 46°42' W 125°25'1413.5
2016-Jun-16 16:33N 46°56' W 125°25'7615.2
2016-Jun-16 11:32N 48°12' W 125°18'1515.4
2016-Jun-16 10:33N 48°25' W 125°08'1414.5
2016-Jun-16 09:34N 48°31' W 124°48'1616.0
2016-Jun-16 08:33N 48°25' W 124°25'1515.3
2016-Jun-16 07:33N 48°19' W 124°04'1515.1
2016-Jun-16 06:33N 48°16' W 123°41'1313.3
2016-Jun-16 05:33N 48°11' W 123°23'1413.5
2016-Jun-16 04:33N 48°13' W 123°03'1717.4
2016-Jun-16 03:34N 48°06' W 122°39'1818.2
2016-Jun-16 02:34N 47°50' W 122°27'1817.9
2016-Jun-16 01:34N 47°32' W 122°28'1414.4
2016-Jun-16 00:34N 47°18' W 122°27'4 3.5
2016-Jun-15 23:32N 47°16' W 122°23'0 0.0
2016-Jun-15 22:32N 47°16' W 122°23'0 0.0
2016-Jun-15 21:32N 47°16' W 122°23'0 0.0
2016-Jun-15 20:29N 47°16' W 122°23'0 0.0
2016-Jun-15 19:29N 47°16' W 122°23'0 0.0
2016-Jun-15 18:26N 47°16' W 122°23'0 0.0
2016-Jun-15 17:26N 47°16' W 122°23'0 0.0
2016-Jun-15 16:32N 47°16' W 122°23'0 0.0
2016-Jun-15 15:29N 47°16' W 122°23'0 0.0
2016-Jun-15 14:32N 47°16' W 122°23'2 1.6
2016-Jun-15 13:33N 47°17' W 122°25'8 7.9
2016-Jun-15 12:34N 47°24' W 122°23'1616.3
2016-Jun-15 11:34N 47°40' W 122°28'1616.2
2016-Jun-15 10:33N 47°56' W 122°32'1616.2
2016-Jun-15 09:33N 48°10' W 122°45'1717.1
2016-Jun-15 08:33N 48°12' W 123°11'1110.8
2016-Jun-15 07:33N 48°11' W 123°27'8 8.4
2016-Jun-15 06:33N 48°20' W 123°27'1111.3
2016-Jun-15 05:33N 48°26' W 123°12'1717.1
2016-Jun-15 04:33N 48°43' W 123°14'1211.5
2016-Jun-15 03:33N 48°54' W 123°08'1717.0
2016-Jun-15 02:33N 49°07' W 123°24'1414.5
2016-Jun-15 01:33N 49°19' W 123°11'6 5.9
2016-Jun-15 00:33N 49°18' W 123°02'0 0.0
2016-Jun-14 23:33N 49°18' W 123°02'0 0.0
2016-Jun-14 22:33N 49°18' W 123°02'0 0.0
2016-Jun-14 21:33N 49°18' W 123°02'0 0.0
2016-Jun-14 20:33N 49°18' W 123°02'0 0.0
2016-Jun-14 19:33N 49°18' W 123°02'0 0.0
2016-Jun-14 18:33N 49°18' W 123°02'0 0.0
2016-Jun-14 17:33N 49°18' W 123°02'0 0.0
2016-Jun-14 16:33N 49°18' W 123°02'0 0.0
2016-Jun-14 15:33N 49°18' W 123°02'0 0.0
2016-Jun-14 14:33N 49°18' W 123°02'0 0.0
2016-Jun-14 13:33N 49°18' W 123°02'0 0.0
2016-Jun-14 12:33N 49°18' W 123°02'0 0.0
2016-Jun-14 11:33N 49°18' W 123°02'0 0.0
2016-Jun-14 10:33N 49°18' W 123°02'0 0.0
2016-Jun-14 09:34N 49°18' W 123°02'2 2.0
2016-Jun-14 08:34N 49°18' W 123°05'7 7.2
2016-Jun-14 07:33N 49°18' W 123°16'13 6.5
2016-Jun-14 05:33N 49°08' W 123°04'7 6.3
2016-Jun-14 04:31N 49°11' W 122°55'0 0.0
2016-Jun-14 03:31N 49°11' W 122°55'0 0.0
2016-Jun-14 02:31N 49°11' W 122°55'0 0.0
2016-Jun-14 01:31N 49°11' W 122°55'0 0.0
2016-Jun-14 00:31N 49°11' W 122°55'  

Dump ship's entire track history